San Tan Valley, Arizona
Current Conditions -  °F | °C
As of 8:47 PM on Wednesday 26 Nov 2014 (Local Time) from KIWA Reporting Station
Clear Clear  
Wind Chill: 52°   Ceiling: Unl
Heat Index: 52°   Visibility: 20mi
Dew Point: 21°   Wind: 5mph
Humidity: 30%   Direction: NA
Pressure: 30.21"   Gusts: NA
Location:  33.17°N, 111.57°W
Report Text: KIWA 270347Z VRB04KT 20SM SKC 11/M06 A3021
Loading
Personal Weather Stations






























Interactive Weather Map New forecast layout! Learn more

10-Day Weather Forecast

Advertisements
Track Severe Weather on mobile